createdAt,value
2022-12-03T00:00:45.369Z,45.85
2022-12-03T00:03:15.382Z,43.25
2022-12-03T00:05:49.240Z,48.13
2022-12-03T00:08:19.447Z,39.97
2022-12-03T00:10:49.364Z,41.13
2022-12-03T00:13:19.189Z,38.45
2022-12-03T00:15:51.763Z,38.72
2022-12-03T00:18:21.710Z,53.65
2022-12-03T00:20:51.645Z,37.65
2022-12-03T00:23:21.517Z,51.45
2022-12-03T00:25:51.417Z,35.92
2022-12-03T00:28:21.237Z,48.65
2022-12-03T00:30:54.351Z,46.58
2022-12-03T00:33:24.846Z,47.38
2022-12-03T00:35:55.046Z,45.88
2022-12-03T00:38:24.928Z,49.20
2022-12-03T00:40:54.767Z,53.33
2022-12-03T00:43:24.682Z,49.40
2022-12-03T00:45:57.715Z,46.22
2022-12-03T00:48:27.626Z,49.88
2022-12-03T00:50:57.589Z,39.95
2022-12-03T00:53:27.527Z,51.10
2022-12-03T00:55:57.478Z,64.00
2022-12-03T00:58:27.320Z,58.20
2022-12-03T01:00:59.795Z,40.30
2022-12-03T01:03:29.918Z,57.15
2022-12-03T01:05:59.850Z,31.58
2022-12-03T01:08:29.762Z,46.47
2022-12-03T01:10:59.662Z,57.67
2022-12-03T01:13:29.661Z,45.20
2022-12-03T01:16:02.171Z,46.55
2022-12-03T01:18:32.172Z,44.97
2022-12-03T01:21:02.007Z,55.15
2022-12-03T01:23:31.919Z,41.30
2022-12-03T01:26:01.803Z,37.20
2022-12-03T01:28:31.766Z,48.63
2022-12-03T01:31:16.813Z,52.65
2022-12-03T01:33:46.881Z,42.88
2022-12-03T01:36:16.721Z,43.47
2022-12-03T01:38:48.868Z,59.10
2022-12-03T01:41:19.740Z,48.45
2022-12-03T01:43:49.964Z,44.05
2022-12-03T01:46:24.801Z,45.97
2022-12-03T01:48:56.336Z,56.80
2022-12-03T01:51:26.296Z,49.13
2022-12-03T01:53:56.333Z,35.58
2022-12-03T01:56:26.268Z,44.70
2022-12-03T01:58:56.184Z,44.40
2022-12-03T02:01:28.738Z,46.15
2022-12-03T02:03:58.946Z,46.75
2022-12-03T02:06:31.401Z,47.40
2022-12-03T02:09:01.476Z,55.17
2022-12-03T02:11:33.725Z,56.60
2022-12-03T02:14:06.409Z,52.63
2022-12-03T02:16:40.373Z,54.15
2022-12-03T02:19:16.067Z,48.03
2022-12-03T02:21:56.595Z,51.83
2022-12-03T02:24:34.638Z,55.17
2022-12-03T02:27:07.240Z,47.65
2022-12-03T02:29:37.259Z,45.63
2022-12-03T02:32:07.660Z,43.17
2022-12-03T02:34:42.207Z,45.50
2022-12-03T02:37:14.997Z,39.25
2022-12-03T02:39:48.970Z,36.55
2022-12-03T02:42:34.890Z,49.90
2022-12-03T02:45:07.500Z,40.45
2022-12-03T02:47:38.812Z,49.13
2022-12-03T02:50:09.991Z,58.20
2022-12-03T02:52:40.651Z,55.13
2022-12-03T02:55:11.258Z,47.90
2022-12-03T02:57:44.060Z,51.08
2022-12-03T03:00:15.605Z,51.00
2022-12-03T03:02:45.650Z,53.72
2022-12-03T03:05:16.173Z,50.58
2022-12-03T03:07:46.182Z,34.35
2022-12-03T03:10:18.700Z,45.90
2022-12-03T03:12:51.346Z,39.60
2022-12-03T03:15:21.393Z,58.72
2022-12-03T03:17:52.807Z,47.70
2022-12-03T03:20:23.195Z,42.22
2022-12-03T03:22:53.047Z,49.50
2022-12-03T03:25:24.884Z,50.67
2022-12-03T03:27:58.013Z,45.15
2022-12-03T03:30:40.133Z,44.65
2022-12-03T03:33:10.552Z,33.90
2022-12-03T03:35:41.190Z,45.78
2022-12-03T03:38:11.889Z,53.47
2022-12-03T03:40:42.492Z,39.53
2022-12-03T03:43:16.005Z,43.08
2022-12-03T03:45:46.908Z,46.63
2022-12-03T03:48:17.201Z,57.95
2022-12-03T03:50:47.708Z,42.78
2022-12-03T03:53:18.163Z,44.65
2022-12-03T03:55:48.313Z,49.85
2022-12-03T03:58:21.941Z,51.83
2022-12-03T04:00:52.016Z,55.22
2022-12-03T04:03:21.951Z,52.70
2022-12-03T04:05:52.202Z,62.10
2022-12-03T04:08:22.124Z,56.05
2022-12-03T04:11:04.735Z,40.53
2022-12-03T04:13:37.185Z,65.03
2022-12-03T04:16:07.452Z,71.03
2022-12-03T04:18:46.266Z,54.65
2022-12-03T04:21:29.941Z,43.78
2022-12-03T04:23:59.815Z,45.17
2022-12-03T04:26:42.451Z,47.65
2022-12-03T04:29:15.305Z,61.10
2022-12-03T04:31:57.568Z,56.80
2022-12-03T04:34:39.913Z,45.00
2022-12-03T04:37:10.075Z,46.95
2022-12-03T04:39:40.159Z,52.85
2022-12-03T04:42:10.457Z,49.85
2022-12-03T04:44:42.894Z,60.30
2022-12-03T04:47:13.971Z,51.78
2022-12-03T04:49:45.506Z,70.68
2022-12-03T04:52:17.509Z,51.92
2022-12-03T04:54:47.779Z,55.13
2022-12-03T04:57:17.817Z,62.08
2022-12-03T04:59:50.271Z,55.72
2022-12-03T05:02:20.393Z,48.50
2022-12-03T05:04:50.575Z,66.53
2022-12-03T05:07:20.689Z,61.90
2022-12-03T05:09:50.610Z,62.97
2022-12-03T05:12:20.472Z,58.13
2022-12-03T05:14:53.651Z,59.70
2022-12-03T05:17:23.852Z,51.75
2022-12-03T05:20:06.158Z,46.17
2022-12-03T05:22:36.558Z,57.10
2022-12-03T05:25:07.498Z,49.42
2022-12-03T05:27:37.457Z,43.65
2022-12-03T05:30:11.529Z,61.13
2022-12-03T05:32:41.467Z,44.75
2022-12-03T05:35:12.791Z,50.90
2022-12-03T05:37:42.712Z,56.63
2022-12-03T05:40:13.911Z,51.45
2022-12-03T05:42:57.234Z,52.80
2022-12-03T05:45:31.361Z,54.80
2022-12-03T05:48:02.339Z,47.58
2022-12-03T05:50:33.744Z,47.63
2022-12-03T05:53:18.174Z,51.15
2022-12-03T05:55:48.079Z,46.55
2022-12-03T05:58:17.961Z,51.28
2022-12-03T06:00:50.392Z,55.72
2022-12-03T06:03:20.286Z,45.05
2022-12-03T06:05:50.277Z,51.30
2022-12-03T06:08:20.157Z,53.13
2022-12-03T06:10:50.124Z,50.03
2022-12-03T06:13:20.303Z,54.83
2022-12-03T06:15:53.055Z,45.63
2022-12-03T06:18:23.025Z,36.22
2022-12-03T06:20:52.953Z,57.15
2022-12-03T06:23:22.781Z,53.22
2022-12-03T06:25:52.657Z,36.92
2022-12-03T06:28:22.494Z,49.97
2022-12-03T06:30:55.108Z,53.38
2022-12-03T06:33:25.053Z,62.38
2022-12-03T06:35:55.133Z,46.42
2022-12-03T06:38:25.201Z,57.42
2022-12-03T06:40:55.126Z,56.53
2022-12-03T06:43:25.001Z,44.22
2022-12-03T06:45:57.527Z,39.78
2022-12-03T06:48:27.403Z,48.70
2022-12-03T06:50:57.212Z,46.15
2022-12-03T06:53:28.046Z,50.15
2022-12-03T06:55:57.981Z,51.63
2022-12-03T06:58:27.897Z,40.88
2022-12-03T07:01:00.355Z,45.40
2022-12-03T07:03:30.264Z,55.58
2022-12-03T07:06:00.117Z,35.72
2022-12-03T07:08:30.681Z,60.15
2022-12-03T07:11:00.581Z,49.45
2022-12-03T07:13:30.442Z,63.72
2022-12-03T07:16:03.296Z,47.47
2022-12-03T07:18:33.177Z,59.75
2022-12-03T07:21:02.996Z,57.05
2022-12-03T07:23:32.897Z,62.28
2022-12-03T07:26:02.705Z,50.67
2022-12-03T07:28:32.542Z,58.42
2022-12-03T07:31:05.105Z,51.85
2022-12-03T07:33:35.113Z,59.35
2022-12-03T07:36:04.971Z,54.65
2022-12-03T07:38:34.890Z,60.40
2022-12-03T07:41:04.991Z,54.70
2022-12-03T07:43:35.342Z,57.13
2022-12-03T07:46:08.694Z,59.47
2022-12-03T07:48:38.667Z,56.85
2022-12-03T07:51:14.255Z,45.90
2022-12-03T07:53:45.318Z,56.03
2022-12-03T07:56:15.153Z,49.55
2022-12-03T07:58:45.015Z,55.28
2022-12-03T08:01:17.664Z,51.58
2022-12-03T08:03:47.673Z,50.03
2022-12-03T08:06:17.552Z,46.53
2022-12-03T08:08:47.362Z,56.65
2022-12-03T08:11:17.696Z,44.45
2022-12-03T08:13:47.535Z,48.97
2022-12-03T08:16:23.218Z,43.97
2022-12-03T08:18:54.053Z,63.33
2022-12-03T08:21:24.884Z,43.72
2022-12-03T08:23:54.739Z,45.38
2022-12-03T08:26:26.295Z,49.05
2022-12-03T08:28:56.655Z,64.15
2022-12-03T08:31:33.694Z,66.88
2022-12-03T08:34:19.095Z,56.53
2022-12-03T08:37:00.784Z,75.90
2022-12-03T08:39:49.331Z,85.68
2022-12-03T08:45:43.044Z,94.32
2022-12-03T08:51:25.306Z,91.78
2022-12-03T08:54:02.184Z,63.20
2022-12-03T08:56:36.076Z,67.18
2022-12-03T08:59:28.346Z,61.08
2022-12-03T09:04:48.457Z,86.28
2022-12-03T09:07:18.493Z,54.05
2022-12-03T09:09:48.453Z,61.80
2022-12-03T09:12:18.331Z,79.65
2022-12-03T09:14:48.285Z,50.10
2022-12-03T09:17:19.287Z,49.40
2022-12-03T09:19:52.045Z,61.47
2022-12-03T09:22:22.092Z,55.33
2022-12-03T09:24:52.564Z,69.28
2022-12-03T09:27:22.974Z,98.45
2022-12-03T09:29:53.031Z,75.97
2022-12-03T09:32:23.066Z,56.30
2022-12-03T09:34:56.303Z,52.83
2022-12-03T09:37:26.473Z,58.08
2022-12-03T09:39:56.545Z,46.00
2022-12-03T09:42:26.488Z,58.33
2022-12-03T09:44:57.292Z,54.80
2022-12-03T09:47:27.168Z,73.38
2022-12-03T09:50:00.084Z,64.13
2022-12-03T09:52:31.152Z,61.05
2022-12-03T09:55:01.514Z,42.10
2022-12-03T09:57:31.313Z,58.65
2022-12-03T10:00:01.975Z,59.10
2022-12-03T10:02:34.396Z,60.83
2022-12-03T10:05:07.252Z,63.28
2022-12-03T10:07:37.242Z,58.13
2022-12-03T10:10:08.920Z,47.38
2022-12-03T10:12:38.864Z,60.00
2022-12-03T10:15:12.580Z,59.25
2022-12-03T10:17:42.695Z,76.10
2022-12-03T10:20:17.704Z,58.03
2022-12-03T10:22:48.947Z,56.00
2022-12-03T10:25:21.137Z,51.28
2022-12-03T10:28:00.145Z,54.28
2022-12-03T10:33:19.134Z,62.63
2022-12-03T10:35:51.860Z,64.10
2022-12-03T10:38:24.960Z,64.05
2022-12-03T10:40:55.154Z,59.92
2022-12-03T10:43:26.911Z,62.10
2022-12-03T10:46:14.487Z,65.28
2022-12-03T10:48:44.520Z,59.15
2022-12-03T10:51:21.332Z,57.70
2022-12-03T10:53:52.040Z,58.50
2022-12-03T10:56:26.701Z,62.45
2022-12-03T10:58:56.800Z,69.82
2022-12-03T11:01:28.603Z,60.40
2022-12-03T11:04:03.706Z,61.13
2022-12-03T11:06:41.481Z,56.10
2022-12-03T11:09:18.743Z,54.80
2022-12-03T11:15:17.640Z,67.90
2022-12-03T11:17:50.346Z,53.97
2022-12-03T11:20:50.306Z,62.95
2022-12-03T11:23:58.000Z,45.65
2022-12-03T11:27:12.740Z,48.20
2022-12-03T11:30:02.586Z,40.95
2022-12-03T11:36:13.399Z,61.80
2022-12-03T11:38:57.467Z,58.85
2022-12-03T11:44:35.412Z,64.65
2022-12-03T11:47:16.469Z,55.33
2022-12-03T11:49:50.746Z,71.28
2022-12-03T11:52:26.550Z,59.47
2022-12-03T11:55:02.927Z,64.90
2022-12-03T12:00:23.845Z,70.32
2022-12-03T12:02:55.248Z,59.47
2022-12-03T12:05:28.996Z,67.47
2022-12-03T12:07:59.643Z,64.47
2022-12-03T12:10:47.013Z,74.80
2022-12-03T12:13:56.076Z,65.88
2022-12-03T12:16:52.873Z,62.97
2022-12-03T12:22:33.910Z,110.32
2022-12-03T12:25:17.650Z,90.93
2022-12-03T12:27:52.248Z,82.70
2022-12-03T12:30:35.817Z,64.68
2022-12-03T12:38:42.900Z,72.32
2022-12-03T12:41:13.785Z,78.43
2022-12-03T12:43:46.338Z,64.80
2022-12-03T12:46:46.663Z,66.78
2022-12-03T12:49:12.407Z,65.28
2022-12-03T12:52:02.387Z,68.35
2022-12-03T12:54:32.309Z,63.40
2022-12-03T12:57:02.184Z,70.82
2022-12-03T12:59:34.735Z,61.13
2022-12-03T13:02:10.065Z,56.28
2022-12-03T13:07:24.611Z,66.50
2022-12-03T13:09:56.948Z,58.22
2022-12-03T13:12:27.242Z,77.60
2022-12-03T13:17:44.970Z,54.60
2022-12-03T13:26:09.266Z,60.80
2022-12-03T13:28:48.799Z,63.00
2022-12-03T13:31:26.137Z,62.25
2022-12-03T13:33:59.557Z,59.92
2022-12-03T13:36:39.629Z,57.88
2022-12-03T13:39:16.776Z,46.10
2022-12-03T13:41:59.152Z,70.07
2022-12-03T13:44:29.946Z,68.75
2022-12-03T13:49:51.274Z,71.13
2022-12-03T13:52:24.422Z,65.35
2022-12-03T13:54:57.016Z,67.53
2022-12-03T13:57:27.221Z,65.40
2022-12-03T13:59:57.496Z,62.67
2022-12-03T14:05:14.178Z,58.40
2022-12-03T14:10:28.165Z,61.33
2022-12-03T14:12:58.845Z,56.13
2022-12-03T14:15:29.151Z,50.38
2022-12-03T14:18:06.739Z,60.08
2022-12-03T14:20:39.751Z,57.33
2022-12-03T14:23:09.679Z,67.53
2022-12-03T14:25:45.095Z,104.40
2022-12-03T14:28:15.052Z,74.05
2022-12-03T14:30:44.951Z,71.00
2022-12-03T14:33:23.050Z,86.22
2022-12-03T14:35:54.418Z,68.25
2022-12-03T14:38:25.850Z,66.53
2022-12-03T14:40:55.855Z,99.03
2022-12-03T14:43:30.679Z,86.15
2022-12-03T14:46:13.587Z,72.10
2022-12-03T14:48:47.136Z,114.47
2022-12-03T14:51:21.993Z,149.15
2022-12-03T14:53:53.171Z,175.45
2022-12-03T14:56:23.459Z,156.20
2022-12-03T14:58:54.284Z,122.03
2022-12-03T15:01:24.375Z,100.75
2022-12-03T15:03:56.886Z,78.95
2022-12-03T15:06:26.824Z,92.85
2022-12-03T15:08:56.744Z,120.30
2022-12-03T15:11:40.163Z,106.15
2022-12-03T15:14:17.879Z,83.85
2022-12-03T15:22:18.291Z,72.47
2022-12-03T15:24:48.218Z,78.85
2022-12-03T15:27:19.125Z,87.57
2022-12-03T15:29:49.420Z,75.32
2022-12-03T15:35:19.632Z,69.57
2022-12-03T15:43:17.917Z,79.63
2022-12-03T15:45:48.242Z,58.53
2022-12-03T15:48:18.358Z,57.20
2022-12-03T15:50:53.365Z,62.20
2022-12-03T15:53:23.414Z,59.78
2022-12-03T16:01:30.379Z,65.25
2022-12-03T16:04:01.743Z,226.73
2022-12-03T16:06:34.200Z,142.73
2022-12-03T16:09:04.142Z,65.65
2022-12-03T16:11:34.086Z,55.40
2022-12-03T16:14:05.273Z,63.60
2022-12-03T16:16:35.301Z,53.67
2022-12-03T16:21:51.570Z,57.92
2022-12-03T16:24:21.569Z,62.85
2022-12-03T16:26:51.475Z,65.18
2022-12-03T16:29:30.581Z,60.92
2022-12-03T16:32:03.457Z,67.43
2022-12-03T16:34:39.904Z,59.55
2022-12-03T16:37:12.618Z,57.25
2022-12-03T16:42:34.717Z,67.93
2022-12-03T16:45:16.803Z,63.08
2022-12-03T16:47:51.897Z,60.55
2022-12-03T16:50:29.075Z,61.78
2022-12-03T16:53:05.999Z,71.15
2022-12-03T16:55:35.960Z,57.10
2022-12-03T16:58:06.075Z,54.53
2022-12-03T17:00:36.053Z,58.88
2022-12-03T17:03:06.047Z,60.53
2022-12-03T17:05:35.987Z,59.30
2022-12-03T17:08:08.680Z,56.50
2022-12-03T17:10:38.914Z,59.67
2022-12-03T17:13:10.341Z,66.47
2022-12-03T17:15:40.759Z,50.25
2022-12-03T17:18:11.132Z,53.45
2022-12-03T17:20:41.276Z,52.92
2022-12-03T17:23:13.831Z,56.22
2022-12-03T17:25:43.792Z,57.28
2022-12-03T17:28:13.780Z,58.30
2022-12-03T17:30:44.420Z,59.47
2022-12-03T17:33:14.385Z,64.80
2022-12-03T17:35:45.650Z,61.55
2022-12-03T17:38:18.252Z,46.67
2022-12-03T17:40:48.159Z,68.43
2022-12-03T17:43:18.130Z,66.55
2022-12-03T17:45:47.985Z,49.97
2022-12-03T17:48:18.264Z,51.10
2022-12-03T17:50:48.732Z,54.63
2022-12-03T17:53:21.281Z,49.67
2022-12-03T17:55:51.167Z,62.50
2022-12-03T17:58:21.028Z,69.18
2022-12-03T18:00:50.836Z,56.13
2022-12-03T18:03:20.797Z,52.92
2022-12-03T18:05:50.724Z,62.72
2022-12-03T18:08:23.380Z,86.72
2022-12-03T18:10:53.390Z,61.33
2022-12-03T18:13:23.316Z,70.75
2022-12-03T18:15:53.216Z,58.30
2022-12-03T18:18:23.185Z,49.33
2022-12-03T18:20:53.102Z,71.72
2022-12-03T18:23:25.672Z,59.78
2022-12-03T18:25:56.779Z,66.35
2022-12-03T18:28:26.964Z,69.88
2022-12-03T18:30:57.066Z,69.72
2022-12-03T18:33:27.257Z,68.40
2022-12-03T18:35:58.821Z,67.40
2022-12-03T18:38:33.612Z,69.35
2022-12-03T18:41:03.585Z,73.70
2022-12-03T18:43:33.527Z,67.22
2022-12-03T18:46:04.531Z,61.75
2022-12-03T18:48:34.470Z,60.95
2022-12-03T18:51:04.518Z,54.85
2022-12-03T18:53:36.996Z,68.93
2022-12-03T18:56:07.150Z,69.38
2022-12-03T18:58:37.128Z,47.90
2022-12-03T19:01:07.409Z,63.40
2022-12-03T19:03:37.433Z,77.05
2022-12-03T19:06:07.973Z,63.58
2022-12-03T19:08:40.418Z,81.93
2022-12-03T19:11:10.520Z,70.32
2022-12-03T19:13:40.891Z,71.75
2022-12-03T19:16:12.618Z,89.38
2022-12-03T19:18:42.584Z,67.53
2022-12-03T19:21:13.937Z,72.53
2022-12-03T19:24:16.042Z,69.05
2022-12-03T19:26:36.547Z,61.42
2022-12-03T19:29:06.587Z,68.78
2022-12-03T19:31:36.532Z,71.85
2022-12-03T19:34:06.537Z,80.28
2022-12-03T19:36:36.474Z,71.45
2022-12-03T19:39:09.092Z,71.15
2022-12-03T19:41:39.398Z,87.18
2022-12-03T19:44:11.031Z,71.70
2022-12-03T19:46:41.106Z,73.03
2022-12-03T19:49:11.346Z,76.97
2022-12-03T19:51:41.371Z,75.68
2022-12-03T19:54:14.780Z,73.28
2022-12-03T19:56:44.681Z,79.47
2022-12-03T19:59:15.585Z,73.90
2022-12-03T20:01:45.608Z,65.78
2022-12-03T20:04:15.906Z,64.38
2022-12-03T20:06:45.823Z,72.38
2022-12-03T20:09:20.773Z,72.45
2022-12-03T20:11:53.988Z,81.55
2022-12-03T20:14:24.184Z,76.93
2022-12-03T20:16:54.116Z,66.88
2022-12-03T20:19:24.014Z,65.13
2022-12-03T20:21:59.057Z,65.97
2022-12-03T20:24:34.780Z,69.55
2022-12-03T20:27:04.719Z,73.10
2022-12-03T20:29:34.748Z,66.55
2022-12-03T20:32:07.051Z,74.40
2022-12-03T20:34:37.182Z,81.57
2022-12-03T20:37:07.130Z,79.13
2022-12-03T20:39:39.990Z,85.22
2022-12-03T20:42:10.307Z,66.25
2022-12-03T20:44:41.007Z,79.15
2022-12-03T20:47:11.011Z,67.25
2022-12-03T20:49:41.702Z,72.40
2022-12-03T20:52:11.674Z,65.97
2022-12-03T20:54:44.282Z,81.47
2022-12-03T20:57:14.179Z,76.00
2022-12-03T20:59:44.059Z,67.43
2022-12-03T21:02:14.109Z,82.63
2022-12-03T21:04:44.170Z,69.65
2022-12-03T21:07:14.098Z,52.85
2022-12-03T21:09:46.582Z,64.32
2022-12-03T21:12:16.471Z,79.47
2022-12-03T21:14:47.249Z,70.70
2022-12-03T21:17:17.209Z,69.78
2022-12-03T21:19:47.504Z,81.95
2022-12-03T21:22:17.418Z,68.53
2022-12-03T21:24:49.922Z,76.47
2022-12-03T21:27:21.766Z,64.40
2022-12-03T21:29:52.997Z,62.60
2022-12-03T21:32:22.984Z,72.25
2022-12-03T21:34:52.868Z,75.00
2022-12-03T21:37:23.079Z,78.32
2022-12-03T21:39:55.856Z,90.35
2022-12-03T21:42:35.390Z,88.00
2022-12-03T21:45:08.262Z,89.40
2022-12-03T21:47:38.241Z,66.78
2022-12-03T21:50:11.290Z,84.35
2022-12-03T21:52:41.202Z,76.75
2022-12-03T21:55:13.914Z,85.78
2022-12-03T21:57:43.891Z,103.82
2022-12-03T22:00:15.175Z,81.32
2022-12-03T22:02:45.202Z,79.47
2022-12-03T22:05:15.264Z,70.70
2022-12-03T22:07:45.691Z,99.07
2022-12-03T22:10:18.263Z,126.75
2022-12-03T22:12:48.114Z,119.20
2022-12-03T22:15:19.479Z,97.95
2022-12-03T22:17:50.255Z,96.30
2022-12-03T22:20:20.252Z,112.95
2022-12-03T22:22:50.197Z,100.97
2022-12-03T22:25:22.740Z,87.70
2022-12-03T22:27:52.651Z,92.72
2022-12-03T22:30:22.774Z,89.80
2022-12-03T22:32:52.656Z,116.53
2022-12-03T22:35:22.568Z,109.63
2022-12-03T22:37:52.433Z,128.98
2022-12-03T22:40:25.063Z,100.43
2022-12-03T22:42:54.946Z,147.52
2022-12-03T22:45:24.808Z,97.40
2022-12-03T22:47:54.790Z,93.38
2022-12-03T22:50:24.675Z,73.65
2022-12-03T22:52:54.545Z,86.28
2022-12-03T22:55:27.024Z,87.95
2022-12-03T22:57:56.962Z,79.40
2022-12-03T23:00:32.578Z,97.40
2022-12-03T23:03:02.652Z,78.32
2022-12-03T23:05:38.535Z,92.10
2022-12-03T23:08:08.920Z,114.97
2022-12-03T23:10:45.823Z,170.70
2022-12-03T23:13:16.035Z,157.75
2022-12-03T23:15:47.809Z,158.10
2022-12-03T23:18:17.942Z,165.50
2022-12-03T23:20:48.754Z,149.02
2022-12-03T23:23:19.357Z,176.75
2022-12-03T23:26:01.699Z,139.93
2022-12-03T23:28:32.881Z,141.60
2022-12-03T23:31:03.039Z,118.75
2022-12-03T23:33:37.887Z,105.38
2022-12-03T23:36:08.799Z,88.05
2022-12-03T23:38:38.890Z,88.38
2022-12-03T23:41:13.491Z,110.55
2022-12-03T23:43:43.990Z,114.07
2022-12-03T23:46:15.247Z,102.07
2022-12-03T23:48:45.665Z,109.82
2022-12-03T23:51:17.029Z,102.60
2022-12-03T23:53:47.122Z,97.50
2022-12-03T23:56:22.130Z,130.27
2022-12-03T23:58:52.043Z,94.10
